Terminal Aerodrome Forecast
Issued by NWS Northern Indiana

Home | Current Version | Previous Version | Graphics & Text | Print | Product List | Glossary On
Versions: 1 2 3 4 5 6 7 8 9 10 11 12 13 14
251
FTUS43 KIWX 081738
TAFFWA
TAF
KFWA 081738Z 0818/0918 28009KT P6SM SCT015 BKN040
     FM082000 29010KT P6SM OVC012
     FM090900 28012KT 5SM -SHSN OVC015
     FM091400 30012KT P6SM OVC030=

USA.gov is the U.S. government's official web portal to all federal, state and local government web resources and services.